Aérodrome :
LOGIN :

S'inscrire | Disclaimer

   EN    FR    IT 

 










Légende :    VFR   VFR Marginal   IFR   IFR Intensif   IFR Très Intensif
Visi : 
Plafond : 
>= 8 km
>= 3000ft
5 à 8 km
1000 à 3000 ft
1500m à 5 km
500 à 1000 ft
800 à 1500m
200 à 500 ft
< 800m
< 200 ft
Symboles :   Orages  Brouillard  Fortes neiges  Fortes précipitations  Vent > 20 kt
SIGMETs :   Divers  Orages  Givrage  Turbulence  Onde Orograph.  Cendres Volcan.






- Altitude de l'aérodrome : 102 ft
- Code IATA : CNG


LFBG - Cognac

DERNIER METAR :
  • 282130Z AUTO 22004KT 9999 FEW010 OVC015 10/08 Q1023

METARs EXPIRÉS :
  • 282100Z AUTO 23004KT 9999 OVC019 10/08 Q1023
  • 282030Z AUTO 19003KT 9999 BKN022 OVC052 10/07 Q1023
  • 282000Z AUTO 24003KT 9999 SCT023 OVC050 10/08 Q1023
  • 281930Z AUTO 24004KT 9999 BKN024 BKN052 10/08 Q1023
  • 281900Z AUTO 25006KT 9999 BKN026 BKN038 OVC048 11/08 Q1023
  • 281830Z AUTO 26008KT 9999 OVC029 12/08 Q1024
  • 281800Z AUTO 29005KT 9999 BKN031 OVC052 12/07 Q1023
  • 281730Z AUTO 28007KT 9999 BKN031 OVC054 12/07 Q1023
  • 281700Z AUTO 27006KT 9999 SCT031 OVC052 13/07 Q1023

TAF AMD TAF LFBG
Valide du 28 à 15h jusqu'au 29 à 15h UTC


281516Z 2815/2915 25005KT 9999 SCT025
TEMPO 2817/2824 4000 -RA BKN010
TEMPO 2900/2912 3000 -DZRA OVC003
TEMPO 2912/2915 4000 RA BKN008



MET'MAP, la Météo Aéronautique d'un coup d'oeil ! - Copyright ORBIFLY Décembre 2007 - Disclaimer

ORBIFLY MET'MAP TEAM :

Programmation & Développement : Alexandra Zaïnal
Sur une idée originale de : Baudouin d'Aumeries
Soutien technique & logistique : Manuel Goepfert
Assistance : Marc-Olivier Méhu




SOURCES & CREDITS :

   NOAA